sensor_id;sensor_type;location;lat;lon;timestamp;P1;durP1;ratioP1;P2;durP2;ratioP2
9522;SDS011;63165;43.016;25.784;2023-06-26T00:00:15;7.32;;;1.40;;
9522;SDS011;63165;43.016;25.784;2023-06-26T00:02:42;4.47;;;1.20;;
9522;SDS011;63165;43.016;25.784;2023-06-26T00:05:10;8.18;;;1.90;;
9522;SDS011;63165;43.016;25.784;2023-06-26T00:07:37;6.60;;;2.20;;
9522;SDS011;63165;43.016;25.784;2023-06-26T00:10:05;10.73;;;2.70;;
9522;SDS011;63165;43.016;25.784;2023-06-26T00:12:34;8.35;;;2.70;;
9522;SDS011;63165;43.016;25.784;2023-06-26T00:15:02;6.00;;;2.58;;
9522;SDS011;63165;43.016;25.784;2023-06-26T00:17:29;9.32;;;2.97;;
9522;SDS011;63165;43.016;25.784;2023-06-26T00:20:02;9.43;;;3.08;;
9522;SDS011;63165;43.016;25.784;2023-06-26T00:22:30;9.30;;;2.80;;
9522;SDS011;63165;43.016;25.784;2023-06-26T00:24:58;9.80;;;2.72;;
9522;SDS011;63165;43.016;25.784;2023-06-26T00:27:26;7.25;;;1.90;;
9522;SDS011;63165;43.016;25.784;2023-06-26T00:29:55;10.63;;;2.10;;
9522;SDS011;63165;43.016;25.784;2023-06-26T00:32:22;10.70;;;1.77;;
9522;SDS011;63165;43.016;25.784;2023-06-26T00:34:49;5.20;;;1.40;;
9522;SDS011;63165;43.016;25.784;2023-06-26T00:37:18;7.75;;;1.00;;
9522;SDS011;63165;43.016;25.784;2023-06-26T00:39:46;5.05;;;1.10;;
9522;SDS011;63165;43.016;25.784;2023-06-26T00:42:14;3.10;;;0.80;;
9522;SDS011;63165;43.016;25.784;2023-06-26T00:44:41;5.35;;;1.00;;
9522;SDS011;63165;43.016;25.784;2023-06-26T00:47:10;4.88;;;0.80;;
9522;SDS011;63165;43.016;25.784;2023-06-26T00:49:41;2.15;;;1.13;;
9522;SDS011;63165;43.016;25.784;2023-06-26T00:52:08;4.03;;;1.10;;
9522;SDS011;63165;43.016;25.784;2023-06-26T00:54:36;9.20;;;1.60;;
9522;SDS011;63165;43.016;25.784;2023-06-26T00:57:03;5.90;;;1.50;;
9522;SDS011;63165;43.016;25.784;2023-06-26T00:59:31;8.38;;;1.60;;
9522;SDS011;63165;43.016;25.784;2023-06-26T01:02:00;10.63;;;2.08;;
9522;SDS011;63165;43.016;25.784;2023-06-26T01:04:29;5.70;;;1.70;;
9522;SDS011;63165;43.016;25.784;2023-06-26T01:06:57;5.95;;;1.90;;
9522;SDS011;63165;43.016;25.784;2023-06-26T01:09:26;5.85;;;1.80;;
9522;SDS011;63165;43.016;25.784;2023-06-26T01:11:54;8.13;;;1.80;;
9522;SDS011;63165;43.016;25.784;2023-06-26T01:14:22;5.13;;;1.95;;
9522;SDS011;63165;43.016;25.784;2023-06-26T01:16:50;5.50;;;2.30;;
9522;SDS011;63165;43.016;25.784;2023-06-26T01:19:19;12.20;;;2.40;;
9522;SDS011;63165;43.016;25.784;2023-06-26T01:21:55;6.05;;;2.25;;
9522;SDS011;63165;43.016;25.784;2023-06-26T01:24:29;6.93;;;2.85;;
9522;SDS011;63165;43.016;25.784;2023-06-26T01:27:03;9.68;;;2.90;;
9522;SDS011;63165;43.016;25.784;2023-06-26T01:29:31;9.27;;;3.00;;
9522;SDS011;63165;43.016;25.784;2023-06-26T01:32:00;12.45;;;3.08;;
9522;SDS011;63165;43.016;25.784;2023-06-26T01:34:28;11.93;;;3.33;;
9522;SDS011;63165;43.016;25.784;2023-06-26T01:36:56;11.93;;;3.50;;
9522;SDS011;63165;43.016;25.784;2023-06-26T01:39:23;9.13;;;3.47;;
9522;SDS011;63165;43.016;25.784;2023-06-26T01:41:51;12.32;;;3.60;;
9522;SDS011;63165;43.016;25.784;2023-06-26T01:44:22;9.32;;;3.63;;
9522;SDS011;63165;43.016;25.784;2023-06-26T01:46:59;9.90;;;3.53;;
9522;SDS011;63165;43.016;25.784;2023-06-26T01:49:30;11.60;;;3.70;;
9522;SDS011;63165;43.016;25.784;2023-06-26T01:52:07;10.73;;;3.55;;
9522;SDS011;63165;43.016;25.784;2023-06-26T01:54:42;15.52;;;3.65;;
9522;SDS011;63165;43.016;25.784;2023-06-26T01:57:19;16.25;;;3.90;;
9522;SDS011;63165;43.016;25.784;2023-06-26T01:59:50;8.02;;;2.83;;
9522;SDS011;63165;43.016;25.784;2023-06-26T02:02:19;9.35;;;3.15;;
9522;SDS011;63165;43.016;25.784;2023-06-26T02:04:46;7.72;;;2.97;;
9522;SDS011;63165;43.016;25.784;2023-06-26T02:07:14;7.32;;;2.63;;
9522;SDS011;63165;43.016;25.784;2023-06-26T02:09:42;10.68;;;2.88;;
9522;SDS011;63165;43.016;25.784;2023-06-26T02:12:10;12.18;;;3.15;;
9522;SDS011;63165;43.016;25.784;2023-06-26T02:14:37;11.63;;;3.10;;
9522;SDS011;63165;43.016;25.784;2023-06-26T02:17:06;9.52;;;2.83;;
9522;SDS011;63165;43.016;25.784;2023-06-26T02:19:34;8.38;;;2.78;;
9522;SDS011;63165;43.016;25.784;2023-06-26T02:22:01;11.82;;;2.80;;
9522;SDS011;63165;43.016;25.784;2023-06-26T02:24:28;10.25;;;3.03;;
9522;SDS011;63165;43.016;25.784;2023-06-26T02:26:56;8.07;;;2.50;;
9522;SDS011;63165;43.016;25.784;2023-06-26T02:29:23;5.43;;;1.80;;
9522;SDS011;63165;43.016;25.784;2023-06-26T02:31:51;8.32;;;1.95;;
9522;SDS011;63165;43.016;25.784;2023-06-26T02:34:19;5.93;;;1.70;;
9522;SDS011;63165;43.016;25.784;2023-06-26T02:36:47;4.03;;;1.70;;
9522;SDS011;63165;43.016;25.784;2023-06-26T02:39:14;8.85;;;2.00;;
9522;SDS011;63165;43.016;25.784;2023-06-26T02:41:41;9.23;;;2.20;;
9522;SDS011;63165;43.016;25.784;2023-06-26T02:44:09;5.97;;;1.85;;
9522;SDS011;63165;43.016;25.784;2023-06-26T02:46:38;6.95;;;1.77;;
9522;SDS011;63165;43.016;25.784;2023-06-26T02:49:05;4.47;;;1.98;;
9522;SDS011;63165;43.016;25.784;2023-06-26T02:51:34;8.73;;;2.45;;
9522;SDS011;63165;43.016;25.784;2023-06-26T02:54:01;5.70;;;1.90;;
9522;SDS011;63165;43.016;25.784;2023-06-26T02:56:29;13.50;;;2.10;;
9522;SDS011;63165;43.016;25.784;2023-06-26T02:58:57;12.23;;;2.38;;
9522;SDS011;63165;43.016;25.784;2023-06-26T03:01:24;6.13;;;2.30;;
9522;SDS011;63165;43.016;25.784;2023-06-26T03:03:51;5.03;;;1.92;;
9522;SDS011;63165;43.016;25.784;2023-06-26T03:06:19;7.30;;;2.20;;
9522;SDS011;63165;43.016;25.784;2023-06-26T03:08:48;7.10;;;2.30;;
9522;SDS011;63165;43.016;25.784;2023-06-26T03:11:15;4.28;;;1.98;;
9522;SDS011;63165;43.016;25.784;2023-06-26T03:13:42;8.00;;;2.30;;
9522;SDS011;63165;43.016;25.784;2023-06-26T03:16:09;8.70;;;2.42;;
9522;SDS011;63165;43.016;25.784;2023-06-26T03:18:37;6.50;;;2.40;;
9522;SDS011;63165;43.016;25.784;2023-06-26T03:21:04;11.30;;;2.80;;
9522;SDS011;63165;43.016;25.784;2023-06-26T03:23:31;5.20;;;2.40;;
9522;SDS011;63165;43.016;25.784;2023-06-26T03:26:00;7.68;;;2.53;;
9522;SDS011;63165;43.016;25.784;2023-06-26T03:28:27;8.38;;;2.25;;
9522;SDS011;63165;43.016;25.784;2023-06-26T03:30:56;5.20;;;2.10;;
9522;SDS011;63165;43.016;25.784;2023-06-26T03:33:23;12.13;;;2.63;;
9522;SDS011;63165;43.016;25.784;2023-06-26T03:35:51;7.40;;;2.38;;
9522;SDS011;63165;43.016;25.784;2023-06-26T03:38:18;7.25;;;2.35;;
9522;SDS011;63165;43.016;25.784;2023-06-26T03:40:46;9.75;;;2.28;;
9522;SDS011;63165;43.016;25.784;2023-06-26T03:43:14;8.50;;;2.75;;
9522;SDS011;63165;43.016;25.784;2023-06-26T03:45:42;7.95;;;2.38;;
9522;SDS011;63165;43.016;25.784;2023-06-26T03:48:09;7.03;;;2.60;;
9522;SDS011;63165;43.016;25.784;2023-06-26T03:50:36;7.82;;;2.63;;
9522;SDS011;63165;43.016;25.784;2023-06-26T03:53:03;9.55;;;2.83;;
9522;SDS011;63165;43.016;25.784;2023-06-26T03:55:31;6.43;;;2.53;;
9522;SDS011;63165;43.016;25.784;2023-06-26T03:57:59;9.75;;;3.33;;
9522;SDS011;63165;43.016;25.784;2023-06-26T04:00:28;15.43;;;3.75;;
9522;SDS011;63165;43.016;25.784;2023-06-26T04:02:56;16.02;;;4.35;;
9522;SDS011;63165;43.016;25.784;2023-06-26T04:05:24;13.82;;;4.95;;
9522;SDS011;63165;43.016;25.784;2023-06-26T04:07:51;16.52;;;4.53;;
9522;SDS011;63165;43.016;25.784;2023-06-26T04:10:18;10.90;;;4.18;;
9522;SDS011;63165;43.016;25.784;2023-06-26T04:12:46;9.60;;;3.80;;
9522;SDS011;63165;43.016;25.784;2023-06-26T04:15:13;9.25;;;3.70;;
9522;SDS011;63165;43.016;25.784;2023-06-26T04:17:43;10.02;;;3.65;;
9522;SDS011;63165;43.016;25.784;2023-06-26T04:20:12;10.85;;;3.92;;
9522;SDS011;63165;43.016;25.784;2023-06-26T04:22:41;13.02;;;4.40;;
9522;SDS011;63165;43.016;25.784;2023-06-26T04:25:08;13.73;;;4.68;;
9522;SDS011;63165;43.016;25.784;2023-06-26T04:27:37;13.93;;;4.80;;
9522;SDS011;63165;43.016;25.784;2023-06-26T04:30:05;15.32;;;4.63;;
9522;SDS011;63165;43.016;25.784;2023-06-26T04:32:33;13.07;;;4.10;;
9522;SDS011;63165;43.016;25.784;2023-06-26T04:35:02;14.25;;;4.68;;
9522;SDS011;63165;43.016;25.784;2023-06-26T04:37:29;9.60;;;4.35;;
9522;SDS011;63165;43.016;25.784;2023-06-26T04:39:57;11.88;;;4.78;;
9522;SDS011;63165;43.016;25.784;2023-06-26T04:42:24;10.02;;;3.85;;
9522;SDS011;63165;43.016;25.784;2023-06-26T04:44:52;19.55;;;4.88;;
9522;SDS011;63165;43.016;25.784;2023-06-26T04:47:19;15.20;;;5.22;;
9522;SDS011;63165;43.016;25.784;2023-06-26T04:49:46;9.57;;;4.40;;
9522;SDS011;63165;43.016;25.784;2023-06-26T04:52:15;15.20;;;5.95;;
9522;SDS011;63165;43.016;25.784;2023-06-26T04:54:42;16.95;;;6.50;;
9522;SDS011;63165;43.016;25.784;2023-06-26T04:57:09;18.10;;;6.88;;
9522;SDS011;63165;43.016;25.784;2023-06-26T04:59:37;20.63;;;6.60;;
9522;SDS011;63165;43.016;25.784;2023-06-26T05:02:06;18.10;;;7.18;;
9522;SDS011;63165;43.016;25.784;2023-06-26T05:04:34;19.75;;;7.95;;
9522;SDS011;63165;43.016;25.784;2023-06-26T05:07:03;23.45;;;8.82;;
9522;SDS011;63165;43.016;25.784;2023-06-26T05:09:32;24.48;;;8.52;;
9522;SDS011;63165;43.016;25.784;2023-06-26T05:11:59;28.73;;;10.75;;
9522;SDS011;63165;43.016;25.784;2023-06-26T05:14:28;31.50;;;11.07;;
9522;SDS011;63165;43.016;25.784;2023-06-26T05:16:56;30.45;;;9.65;;
9522;SDS011;63165;43.016;25.784;2023-06-26T05:19:23;32.30;;;11.30;;
9522;SDS011;63165;43.016;25.784;2023-06-26T05:21:52;30.75;;;10.10;;
9522;SDS011;63165;43.016;25.784;2023-06-26T05:24:21;24.67;;;10.05;;
9522;SDS011;63165;43.016;25.784;2023-06-26T05:26:52;33.70;;;11.48;;
9522;SDS011;63165;43.016;25.784;2023-06-26T05:29:20;31.67;;;11.45;;
9522;SDS011;63165;43.016;25.784;2023-06-26T05:31:48;30.50;;;11.13;;
9522;SDS011;63165;43.016;25.784;2023-06-26T05:34:18;30.70;;;11.00;;
9522;SDS011;63165;43.016;25.784;2023-06-26T05:36:49;27.80;;;10.55;;
9522;SDS011;63165;43.016;25.784;2023-06-26T05:39:18;23.58;;;10.23;;
9522;SDS011;63165;43.016;25.784;2023-06-26T05:41:46;26.38;;;10.50;;
9522;SDS011;63165;43.016;25.784;2023-06-26T05:44:15;24.88;;;9.77;;
9522;SDS011;63165;43.016;25.784;2023-06-26T05:46:43;25.98;;;10.77;;
9522;SDS011;63165;43.016;25.784;2023-06-26T05:49:10;29.65;;;11.20;;
9522;SDS011;63165;43.016;25.784;2023-06-26T05:51:38;24.48;;;10.07;;
9522;SDS011;63165;43.016;25.784;2023-06-26T05:54:06;28.45;;;10.02;;
9522;SDS011;63165;43.016;25.784;2023-06-26T05:56:34;21.90;;;9.15;;
9522;SDS011;63165;43.016;25.784;2023-06-26T05:59:02;26.40;;;9.90;;
9522;SDS011;63165;43.016;25.784;2023-06-26T06:01:33;22.90;;;10.27;;
9522;SDS011;63165;43.016;25.784;2023-06-26T06:04:01;23.45;;;9.95;;
9522;SDS011;63165;43.016;25.784;2023-06-26T06:06:28;24.55;;;9.73;;
9522;SDS011;63165;43.016;25.784;2023-06-26T06:08:55;27.98;;;10.13;;
9522;SDS011;63165;43.016;25.784;2023-06-26T06:11:22;22.55;;;9.30;;
9522;SDS011;63165;43.016;25.784;2023-06-26T06:13:57;21.00;;;9.32;;
9522;SDS011;63165;43.016;25.784;2023-06-26T06:16:39;22.55;;;8.68;;
9522;SDS011;63165;43.016;25.784;2023-06-26T06:19:06;27.02;;;9.25;;
9522;SDS011;63165;43.016;25.784;2023-06-26T06:21:36;25.35;;;9.13;;
9522;SDS011;63165;43.016;25.784;2023-06-26T06:24:03;27.83;;;9.32;;
9522;SDS011;63165;43.016;25.784;2023-06-26T06:26:50;21.67;;;9.43;;
9522;SDS011;63165;43.016;25.784;2023-06-26T06:33:32;22.52;;;10.00;;
9522;SDS011;63165;43.016;25.784;2023-06-26T06:35:59;26.15;;;9.13;;
9522;SDS011;63165;43.016;25.784;2023-06-26T06:38:27;22.83;;;8.88;;
9522;SDS011;63165;43.016;25.784;2023-06-26T06:40:54;26.58;;;9.25;;
9522;SDS011;63165;43.016;25.784;2023-06-26T06:43:22;27.25;;;10.23;;
9522;SDS011;63165;43.016;25.784;2023-06-26T06:45:50;23.83;;;7.90;;
9522;SDS011;63165;43.016;25.784;2023-06-26T06:48:17;20.92;;;8.73;;
9522;SDS011;63165;43.016;25.784;2023-06-26T06:50:46;20.98;;;8.13;;
9522;SDS011;63165;43.016;25.784;2023-06-26T06:53:13;26.70;;;8.25;;
9522;SDS011;63165;43.016;25.784;2023-06-26T06:55:40;19.52;;;7.72;;
9522;SDS011;63165;43.016;25.784;2023-06-26T06:58:08;18.50;;;7.43;;
9522;SDS011;63165;43.016;25.784;2023-06-26T07:00:35;24.75;;;8.35;;
9522;SDS011;63165;43.016;25.784;2023-06-26T07:03:03;23.25;;;8.20;;
9522;SDS011;63165;43.016;25.784;2023-06-26T07:05:30;17.77;;;7.57;;
9522;SDS011;63165;43.016;25.784;2023-06-26T07:07:59;21.67;;;8.40;;
9522;SDS011;63165;43.016;25.784;2023-06-26T07:10:26;21.17;;;8.20;;
9522;SDS011;63165;43.016;25.784;2023-06-26T07:12:53;21.17;;;8.05;;
9522;SDS011;63165;43.016;25.784;2023-06-26T07:15:21;19.85;;;8.43;;
9522;SDS011;63165;43.016;25.784;2023-06-26T07:17:48;24.60;;;8.80;;
9522;SDS011;63165;43.016;25.784;2023-06-26T07:20:15;18.30;;;7.80;;
9522;SDS011;63165;43.016;25.784;2023-06-26T07:22:43;20.35;;;7.70;;
9522;SDS011;63165;43.016;25.784;2023-06-26T07:25:12;18.60;;;7.72;;
9522;SDS011;63165;43.016;25.784;2023-06-26T07:27:40;22.73;;;9.52;;
9522;SDS011;63165;43.016;25.784;2023-06-26T07:30:09;22.65;;;8.48;;
9522;SDS011;63165;43.016;25.784;2023-06-26T07:32:36;19.10;;;7.32;;
9522;SDS011;63165;43.016;25.784;2023-06-26T07:35:05;16.05;;;7.10;;
9522;SDS011;63165;43.016;25.784;2023-06-26T07:37:33;15.75;;;6.47;;
9522;SDS011;63165;43.016;25.784;2023-06-26T07:40:01;20.23;;;6.95;;
9522;SDS011;63165;43.016;25.784;2023-06-26T07:42:30;24.90;;;7.97;;
9522;SDS011;63165;43.016;25.784;2023-06-26T07:44:57;24.30;;;7.35;;
9522;SDS011;63165;43.016;25.784;2023-06-26T07:47:25;17.23;;;7.57;;
9522;SDS011;63165;43.016;25.784;2023-06-26T07:49:52;16.67;;;6.55;;
9522;SDS011;63165;43.016;25.784;2023-06-26T07:52:20;18.85;;;7.05;;
9522;SDS011;63165;43.016;25.784;2023-06-26T07:54:47;18.98;;;6.63;;
9522;SDS011;63165;43.016;25.784;2023-06-26T07:57:15;14.77;;;6.38;;
9522;SDS011;63165;43.016;25.784;2023-06-26T07:59:43;16.90;;;6.65;;
9522;SDS011;63165;43.016;25.784;2023-06-26T08:02:11;15.57;;;6.28;;
9522;SDS011;63165;43.016;25.784;2023-06-26T08:04:38;18.52;;;6.20;;
9522;SDS011;63165;43.016;25.784;2023-06-26T08:07:05;16.45;;;6.70;;
9522;SDS011;63165;43.016;25.784;2023-06-26T08:09:33;16.60;;;6.50;;
9522;SDS011;63165;43.016;25.784;2023-06-26T08:12:00;21.08;;;6.80;;
9522;SDS011;63165;43.016;25.784;2023-06-26T08:14:27;15.23;;;6.80;;
9522;SDS011;63165;43.016;25.784;2023-06-26T08:16:56;18.05;;;7.15;;
9522;SDS011;63165;43.016;25.784;2023-06-26T08:19:24;15.15;;;5.97;;
9522;SDS011;63165;43.016;25.784;2023-06-26T08:21:52;16.17;;;6.38;;
9522;SDS011;63165;43.016;25.784;2023-06-26T08:24:19;19.90;;;6.75;;
9522;SDS011;63165;43.016;25.784;2023-06-26T08:26:47;16.48;;;6.82;;
9522;SDS011;63165;43.016;25.784;2023-06-26T08:29:15;16.70;;;6.40;;
9522;SDS011;63165;43.016;25.784;2023-06-26T08:31:42;17.73;;;6.85;;
9522;SDS011;63165;43.016;25.784;2023-06-26T08:34:11;17.38;;;6.38;;
9522;SDS011;63165;43.016;25.784;2023-06-26T08:36:38;15.95;;;6.40;;
9522;SDS011;63165;43.016;25.784;2023-06-26T08:39:06;17.83;;;6.80;;
9522;SDS011;63165;43.016;25.784;2023-06-26T08:41:33;19.38;;;6.40;;
9522;SDS011;63165;43.016;25.784;2023-06-26T08:44:01;20.27;;;7.00;;
9522;SDS011;63165;43.016;25.784;2023-06-26T08:46:29;17.92;;;6.55;;
9522;SDS011;63165;43.016;25.784;2023-06-26T08:49:00;14.98;;;6.28;;
9522;SDS011;63165;43.016;25.784;2023-06-26T08:51:30;17.77;;;6.57;;
9522;SDS011;63165;43.016;25.784;2023-06-26T08:54:00;16.95;;;6.38;;
9522;SDS011;63165;43.016;25.784;2023-06-26T08:56:31;17.83;;;6.10;;
9522;SDS011;63165;43.016;25.784;2023-06-26T08:59:02;17.02;;;7.13;;
9522;SDS011;63165;43.016;25.784;2023-06-26T09:01:31;16.65;;;6.10;;
9522;SDS011;63165;43.016;25.784;2023-06-26T09:03:58;12.85;;;6.25;;
9522;SDS011;63165;43.016;25.784;2023-06-26T09:06:27;14.75;;;5.93;;
9522;SDS011;63165;43.016;25.784;2023-06-26T09:09:16;17.15;;;6.50;;
9522;SDS011;63165;43.016;25.784;2023-06-26T09:11:52;13.35;;;6.40;;
9522;SDS011;63165;43.016;25.784;2023-06-26T09:14:20;20.80;;;6.20;;
9522;SDS011;63165;43.016;25.784;2023-06-26T09:16:48;15.63;;;6.13;;
9522;SDS011;63165;43.016;25.784;2023-06-26T09:19:15;17.67;;;6.07;;
9522;SDS011;63165;43.016;25.784;2023-06-26T09:21:44;16.33;;;6.10;;
9522;SDS011;63165;43.016;25.784;2023-06-26T09:24:16;17.13;;;6.65;;
9522;SDS011;63165;43.016;25.784;2023-06-26T09:26:43;13.55;;;5.78;;
9522;SDS011;63165;43.016;25.784;2023-06-26T09:29:10;13.02;;;5.65;;
9522;SDS011;63165;43.016;25.784;2023-06-26T09:31:40;17.50;;;6.28;;
9522;SDS011;63165;43.016;25.784;2023-06-26T09:34:08;15.30;;;5.55;;
9522;SDS011;63165;43.016;25.784;2023-06-26T09:36:36;14.35;;;5.90;;
9522;SDS011;63165;43.016;25.784;2023-06-26T09:39:05;18.75;;;6.13;;
9522;SDS011;63165;43.016;25.784;2023-06-26T09:41:36;14.00;;;6.40;;
9522;SDS011;63165;43.016;25.784;2023-06-26T09:44:05;16.00;;;6.15;;
9522;SDS011;63165;43.016;25.784;2023-06-26T09:46:33;10.88;;;5.38;;
9522;SDS011;63165;43.016;25.784;2023-06-26T09:49:03;12.73;;;5.47;;
9522;SDS011;63165;43.016;25.784;2023-06-26T09:51:32;16.83;;;5.93;;
9522;SDS011;63165;43.016;25.784;2023-06-26T09:54:00;16.75;;;5.43;;
9522;SDS011;63165;43.016;25.784;2023-06-26T09:56:30;19.02;;;5.10;;
9522;SDS011;63165;43.016;25.784;2023-06-26T09:59:00;18.90;;;5.43;;
9522;SDS011;63165;43.016;25.784;2023-06-26T10:01:29;16.77;;;5.50;;
9522;SDS011;63165;43.016;25.784;2023-06-26T10:03:58;14.13;;;5.30;;
9522;SDS011;63165;43.016;25.784;2023-06-26T10:06:27;13.95;;;5.32;;
9522;SDS011;63165;43.016;25.784;2023-06-26T10:08:58;13.30;;;5.50;;
9522;SDS011;63165;43.016;25.784;2023-06-26T10:11:29;13.80;;;5.40;;
9522;SDS011;63165;43.016;25.784;2023-06-26T10:14:03;14.90;;;5.45;;
9522;SDS011;63165;43.016;25.784;2023-06-26T10:16:33;12.77;;;4.68;;
9522;SDS011;63165;43.016;25.784;2023-06-26T10:19:05;13.63;;;5.35;;
9522;SDS011;63165;43.016;25.784;2023-06-26T10:21:35;15.05;;;5.20;;
9522;SDS011;63165;43.016;25.784;2023-06-26T10:24:05;11.98;;;5.10;;
9522;SDS011;63165;43.016;25.784;2023-06-26T10:26:38;14.80;;;5.40;;
9522;SDS011;63165;43.016;25.784;2023-06-26T10:29:08;14.20;;;5.45;;
9522;SDS011;63165;43.016;25.784;2023-06-26T10:31:37;10.85;;;5.15;;
9522;SDS011;63165;43.016;25.784;2023-06-26T10:34:07;13.32;;;5.00;;
9522;SDS011;63165;43.016;25.784;2023-06-26T10:36:34;10.90;;;5.30;;
9522;SDS011;63165;43.016;25.784;2023-06-26T10:39:03;14.13;;;4.88;;
9522;SDS011;63165;43.016;25.784;2023-06-26T10:41:37;15.98;;;4.68;;
9522;SDS011;63165;43.016;25.784;2023-06-26T10:44:08;12.02;;;4.90;;
9522;SDS011;63165;43.016;25.784;2023-06-26T10:46:49;15.43;;;5.00;;
9522;SDS011;63165;43.016;25.784;2023-06-26T10:49:18;10.50;;;4.35;;
9522;SDS011;63165;43.016;25.784;2023-06-26T10:51:46;10.30;;;4.93;;
9522;SDS011;63165;43.016;25.784;2023-06-26T10:54:15;13.10;;;4.88;;
9522;SDS011;63165;43.016;25.784;2023-06-26T10:56:46;11.30;;;4.57;;
9522;SDS011;63165;43.016;25.784;2023-06-26T10:59:14;15.38;;;4.13;;
9522;SDS011;63165;43.016;25.784;2023-06-26T11:01:43;14.02;;;4.60;;
9522;SDS011;63165;43.016;25.784;2023-06-26T11:04:12;9.60;;;4.28;;
9522;SDS011;63165;43.016;25.784;2023-06-26T11:06:41;18.50;;;5.15;;
9522;SDS011;63165;43.016;25.784;2023-06-26T11:09:14;17.40;;;4.90;;
9522;SDS011;63165;43.016;25.784;2023-06-26T11:12:00;11.00;;;4.60;;
9522;SDS011;63165;43.016;25.784;2023-06-26T11:14:31;10.52;;;3.97;;
9522;SDS011;63165;43.016;25.784;2023-06-26T12:53:55;12.43;;;4.00;;
9522;SDS011;63165;43.016;25.784;2023-06-26T12:56:24;10.02;;;2.83;;
9522;SDS011;63165;43.016;25.784;2023-06-26T12:58:51;9.30;;;3.42;;
9522;SDS011;63165;43.016;25.784;2023-06-26T13:01:18;12.23;;;3.28;;
9522;SDS011;63165;43.016;25.784;2023-06-26T13:03:49;20.02;;;3.58;;
9522;SDS011;63165;43.016;25.784;2023-06-26T13:06:17;6.38;;;3.05;;
9522;SDS011;63165;43.016;25.784;2023-06-26T13:08:45;14.05;;;3.47;;
9522;SDS011;63165;43.016;25.784;2023-06-26T13:11:12;13.90;;;3.60;;
9522;SDS011;63165;43.016;25.784;2023-06-26T13:13:44;15.85;;;4.22;;
9522;SDS011;63165;43.016;25.784;2023-06-26T13:18:46;19.92;;;4.22;;
9522;SDS011;63165;43.016;25.784;2023-06-26T13:24:36;18.33;;;4.88;;
9522;SDS011;63165;43.016;25.784;2023-06-26T13:27:03;16.92;;;4.88;;
9522;SDS011;63165;43.016;25.784;2023-06-26T13:29:33;23.73;;;5.10;;
9522;SDS011;63165;43.016;25.784;2023-06-26T13:32:01;14.00;;;4.60;;
9522;SDS011;63165;43.016;25.784;2023-06-26T13:34:29;16.10;;;4.78;;
9522;SDS011;63165;43.016;25.784;2023-06-26T13:36:57;17.30;;;5.47;;
9522;SDS011;63165;43.016;25.784;2023-06-26T13:39:25;18.10;;;5.22;;
9522;SDS011;63165;43.016;25.784;2023-06-26T13:41:53;19.67;;;4.70;;
9522;SDS011;63165;43.016;25.784;2023-06-26T13:44:21;16.48;;;4.80;;
9522;SDS011;63165;43.016;25.784;2023-06-26T13:46:50;18.45;;;4.68;;
9522;SDS011;63165;43.016;25.784;2023-06-26T13:49:18;18.58;;;5.60;;
9522;SDS011;63165;43.016;25.784;2023-06-26T13:51:46;12.02;;;4.88;;
9522;SDS011;63165;43.016;25.784;2023-06-26T13:54:13;14.95;;;4.57;;
9522;SDS011;63165;43.016;25.784;2023-06-26T13:56:43;17.15;;;5.72;;
9522;SDS011;63165;43.016;25.784;2023-06-26T13:59:11;16.33;;;5.72;;
9522;SDS011;63165;43.016;25.784;2023-06-26T14:01:39;15.15;;;5.10;;
9522;SDS011;63165;43.016;25.784;2023-06-26T14:04:10;19.08;;;5.47;;
9522;SDS011;63165;43.016;25.784;2023-06-26T14:06:38;20.15;;;5.85;;
9522;SDS011;63165;43.016;25.784;2023-06-26T14:09:07;13.80;;;5.55;;
9522;SDS011;63165;43.016;25.784;2023-06-26T14:11:35;14.93;;;6.05;;
9522;SDS011;63165;43.016;25.784;2023-06-26T14:14:02;12.70;;;5.80;;
9522;SDS011;63165;43.016;25.784;2023-06-26T14:16:34;16.40;;;5.88;;
9522;SDS011;63165;43.016;25.784;2023-06-26T14:25:29;15.00;;;6.00;;
9522;SDS011;63165;43.016;25.784;2023-06-26T14:38:22;16.38;;;6.22;;
9522;SDS011;63165;43.016;25.784;2023-06-26T14:41:02;13.85;;;5.45;;
9522;SDS011;63165;43.016;25.784;2023-06-26T14:44:09;13.57;;;5.72;;
9522;SDS011;63165;43.016;25.784;2023-06-26T14:47:07;18.42;;;5.72;;
9522;SDS011;63165;43.016;25.784;2023-06-26T14:50:03;14.88;;;5.60;;
9522;SDS011;63165;43.016;25.784;2023-06-26T14:53:29;18.42;;;5.85;;
9522;SDS011;63165;43.016;25.784;2023-06-26T14:56:44;20.67;;;6.50;;
9522;SDS011;63165;43.016;25.784;2023-06-26T14:59:26;15.00;;;6.07;;
9522;SDS011;63165;43.016;25.784;2023-06-26T15:05:38;12.07;;;4.97;;
9522;SDS011;63165;43.016;25.784;2023-06-26T15:18:50;21.90;;;6.15;;
9522;SDS011;63165;43.016;25.784;2023-06-26T15:21:42;22.08;;;7.00;;
9522;SDS011;63165;43.016;25.784;2023-06-26T15:24:18;16.95;;;5.90;;
9522;SDS011;63165;43.016;25.784;2023-06-26T15:26:50;16.42;;;5.93;;
9522;SDS011;63165;43.016;25.784;2023-06-26T15:30:13;19.90;;;5.68;;
9522;SDS011;63165;43.016;25.784;2023-06-26T15:32:52;11.95;;;5.00;;
9522;SDS011;63165;43.016;25.784;2023-06-26T15:35:20;14.75;;;4.55;;
9522;SDS011;63165;43.016;25.784;2023-06-26T15:37:48;17.40;;;5.07;;
9522;SDS011;63165;43.016;25.784;2023-06-26T15:40:15;14.13;;;4.95;;
9522;SDS011;63165;43.016;25.784;2023-06-26T15:42:46;10.98;;;4.63;;
9522;SDS011;63165;43.016;25.784;2023-06-26T15:58:03;19.30;;;4.43;;
9522;SDS011;63165;43.016;25.784;2023-06-26T16:00:30;12.80;;;4.07;;
9522;SDS011;63165;43.016;25.784;2023-06-26T16:02:57;11.52;;;4.43;;
9522;SDS011;63165;43.016;25.784;2023-06-26T16:05:26;12.23;;;4.13;;
9522;SDS011;63165;43.016;25.784;2023-06-26T16:07:55;12.93;;;4.40;;
9522;SDS011;63165;43.016;25.784;2023-06-26T16:10:23;16.60;;;4.47;;
9522;SDS011;63165;43.016;25.784;2023-06-26T16:12:50;13.52;;;4.35;;
9522;SDS011;63165;43.016;25.784;2023-06-26T16:19:08;10.27;;;3.92;;
9522;SDS011;63165;43.016;25.784;2023-06-26T16:22:02;10.98;;;3.90;;
9522;SDS011;63165;43.016;25.784;2023-06-26T16:24:31;14.88;;;4.38;;
9522;SDS011;63165;43.016;25.784;2023-06-26T16:26:59;18.60;;;4.15;;
9522;SDS011;63165;43.016;25.784;2023-06-26T16:29:27;12.35;;;3.90;;
9522;SDS011;63165;43.016;25.784;2023-06-26T16:31:56;14.05;;;4.22;;
9522;SDS011;63165;43.016;25.784;2023-06-26T16:37:35;13.02;;;4.43;;
9522;SDS011;63165;43.016;25.784;2023-06-26T16:40:22;14.68;;;4.85;;
9522;SDS011;63165;43.016;25.784;2023-06-26T16:42:53;11.45;;;4.50;;
9522;SDS011;63165;43.016;25.784;2023-06-26T16:45:22;12.40;;;4.50;;
9522;SDS011;63165;43.016;25.784;2023-06-26T16:48:07;8.82;;;4.20;;
9522;SDS011;63165;43.016;25.784;2023-06-26T16:50:35;11.18;;;4.47;;
9522;SDS011;63165;43.016;25.784;2023-06-26T16:53:07;11.32;;;4.63;;
9522;SDS011;63165;43.016;25.784;2023-06-26T16:55:36;15.77;;;4.63;;
9522;SDS011;63165;43.016;25.784;2023-06-26T16:58:04;12.40;;;4.78;;
9522;SDS011;63165;43.016;25.784;2023-06-26T17:00:42;16.08;;;4.65;;
9522;SDS011;63165;43.016;25.784;2023-06-26T17:03:51;12.30;;;4.55;;
9522;SDS011;63165;43.016;25.784;2023-06-26T17:06:32;13.35;;;4.25;;
9522;SDS011;63165;43.016;25.784;2023-06-26T17:09:39;12.50;;;4.35;;
9522;SDS011;63165;43.016;25.784;2023-06-26T17:19:18;14.50;;;4.75;;
9522;SDS011;63165;43.016;25.784;2023-06-26T17:22:40;16.15;;;5.25;;
9522;SDS011;63165;43.016;25.784;2023-06-26T17:25:48;14.63;;;5.05;;
9522;SDS011;63165;43.016;25.784;2023-06-26T17:38:37;16.08;;;4.82;;
9522;SDS011;63165;43.016;25.784;2023-06-26T17:41:04;11.88;;;4.57;;
9522;SDS011;63165;43.016;25.784;2023-06-26T17:43:32;13.82;;;4.10;;
9522;SDS011;63165;43.016;25.784;2023-06-26T17:45:59;12.25;;;4.30;;
9522;SDS011;63165;43.016;25.784;2023-06-26T17:48:26;13.50;;;4.03;;